sensor_id;sensor_type;location;lat;lon;timestamp;temperature;humidity
49679;DHT22;35570;48.218;16.326;2023-08-06T00:00:40;17.30;99.90
49679;DHT22;35570;48.218;16.326;2023-08-06T00:03:06;17.30;99.90
49679;DHT22;35570;48.218;16.326;2023-08-06T00:05:31;17.20;99.90
49679;DHT22;35570;48.218;16.326;2023-08-06T00:07:57;17.20;99.90
49679;DHT22;35570;48.218;16.326;2023-08-06T00:10:23;17.20;99.90
49679;DHT22;35570;48.218;16.326;2023-08-06T00:12:48;17.20;99.90
49679;DHT22;35570;48.218;16.326;2023-08-06T00:15:14;17.20;99.90
49679;DHT22;35570;48.218;16.326;2023-08-06T00:17:40;17.20;99.90
49679;DHT22;35570;48.218;16.326;2023-08-06T00:20:07;17.10;99.90
49679;DHT22;35570;48.218;16.326;2023-08-06T00:22:33;17.10;99.90
49679;DHT22;35570;48.218;16.326;2023-08-06T00:24:59;17.10;99.90
49679;DHT22;35570;48.218;16.326;2023-08-06T00:27:25;17.10;99.90
49679;DHT22;35570;48.218;16.326;2023-08-06T00:29:51;17.10;99.90
49679;DHT22;35570;48.218;16.326;2023-08-06T00:32:18;17.00;99.90
49679;DHT22;35570;48.218;16.326;2023-08-06T00:34:43;17.00;99.90
49679;DHT22;35570;48.218;16.326;2023-08-06T00:37:09;17.00;99.90
49679;DHT22;35570;48.218;16.326;2023-08-06T00:39:35;16.90;99.90
49679;DHT22;35570;48.218;16.326;2023-08-06T00:42:00;16.90;99.90
49679;DHT22;35570;48.218;16.326;2023-08-06T00:44:26;16.90;99.90
49679;DHT22;35570;48.218;16.326;2023-08-06T00:46:52;16.90;99.90
49679;DHT22;35570;48.218;16.326;2023-08-06T00:49:18;16.90;99.90
49679;DHT22;35570;48.218;16.326;2023-08-06T00:51:44;16.90;99.90
49679;DHT22;35570;48.218;16.326;2023-08-06T00:54:10;16.90;99.90
49679;DHT22;35570;48.218;16.326;2023-08-06T00:56:36;16.80;99.90
49679;DHT22;35570;48.218;16.326;2023-08-06T00:59:06;16.80;99.90
49679;DHT22;35570;48.218;16.326;2023-08-06T01:01:32;16.80;99.90
49679;DHT22;35570;48.218;16.326;2023-08-06T01:03:58;16.80;99.90
49679;DHT22;35570;48.218;16.326;2023-08-06T01:07:37;16.80;99.90
49679;DHT22;35570;48.218;16.326;2023-08-06T01:12:59;16.80;99.90
49679;DHT22;35570;48.218;16.326;2023-08-06T01:15:30;16.80;99.90
49679;DHT22;35570;48.218;16.326;2023-08-06T01:17:56;16.80;99.90
49679;DHT22;35570;48.218;16.326;2023-08-06T01:20:30;16.80;99.90
49679;DHT22;35570;48.218;16.326;2023-08-06T01:22:56;16.80;99.90
49679;DHT22;35570;48.218;16.326;2023-08-06T01:25:29;16.80;99.90
49679;DHT22;35570;48.218;16.326;2023-08-06T01:28:07;16.80;99.90
49679;DHT22;35570;48.218;16.326;2023-08-06T01:30:39;16.80;99.90
49679;DHT22;35570;48.218;16.326;2023-08-06T01:33:09;16.80;99.90
49679;DHT22;35570;48.218;16.326;2023-08-06T01:35:37;16.80;99.90
49679;DHT22;35570;48.218;16.326;2023-08-06T01:38:03;16.70;99.90
49679;DHT22;35570;48.218;16.326;2023-08-06T01:40:29;16.70;99.90
49679;DHT22;35570;48.218;16.326;2023-08-06T01:42:55;16.60;99.90
49679;DHT22;35570;48.218;16.326;2023-08-06T01:45:21;16.60;99.90
49679;DHT22;35570;48.218;16.326;2023-08-06T01:47:46;16.50;99.90
49679;DHT22;35570;48.218;16.326;2023-08-06T01:50:12;16.50;99.90
49679;DHT22;35570;48.218;16.326;2023-08-06T01:52:38;16.40;99.90
49679;DHT22;35570;48.218;16.326;2023-08-06T01:55:04;16.40;99.90
49679;DHT22;35570;48.218;16.326;2023-08-06T01:57:29;16.50;99.90
49679;DHT22;35570;48.218;16.326;2023-08-06T01:59:55;16.50;99.90
49679;DHT22;35570;48.218;16.326;2023-08-06T02:02:21;16.40;99.90
49679;DHT22;35570;48.218;16.326;2023-08-06T02:04:47;16.40;99.90
49679;DHT22;35570;48.218;16.326;2023-08-06T02:07:13;16.40;99.90
49679;DHT22;35570;48.218;16.326;2023-08-06T02:09:38;16.40;99.90
49679;DHT22;35570;48.218;16.326;2023-08-06T02:12:05;16.40;99.90
49679;DHT22;35570;48.218;16.326;2023-08-06T02:14:31;16.50;99.90
49679;DHT22;35570;48.218;16.326;2023-08-06T02:16:57;16.50;99.90
49679;DHT22;35570;48.218;16.326;2023-08-06T02:19:23;16.40;99.90
49679;DHT22;35570;48.218;16.326;2023-08-06T02:21:48;16.50;99.90
49679;DHT22;35570;48.218;16.326;2023-08-06T02:24:14;16.50;99.90
49679;DHT22;35570;48.218;16.326;2023-08-06T02:26:41;16.40;99.90
49679;DHT22;35570;48.218;16.326;2023-08-06T02:29:07;16.40;99.90
49679;DHT22;35570;48.218;16.326;2023-08-06T02:31:33;16.40;99.90
49679;DHT22;35570;48.218;16.326;2023-08-06T02:33:59;16.40;99.90
49679;DHT22;35570;48.218;16.326;2023-08-06T02:36:24;16.40;99.90
49679;DHT22;35570;48.218;16.326;2023-08-06T02:38:52;16.40;99.90
49679;DHT22;35570;48.218;16.326;2023-08-06T02:41:18;16.40;99.90
49679;DHT22;35570;48.218;16.326;2023-08-06T02:43:44;16.40;99.90
49679;DHT22;35570;48.218;16.326;2023-08-06T02:46:10;16.40;99.90
49679;DHT22;35570;48.218;16.326;2023-08-06T02:48:36;16.40;99.90
49679;DHT22;35570;48.218;16.326;2023-08-06T02:51:02;16.40;99.90
49679;DHT22;35570;48.218;16.326;2023-08-06T02:53:28;16.40;99.90
49679;DHT22;35570;48.218;16.326;2023-08-06T02:55:53;16.40;99.90
49679;DHT22;35570;48.218;16.326;2023-08-06T02:58:20;16.40;99.90
49679;DHT22;35570;48.218;16.326;2023-08-06T03:01:03;16.40;99.90
49679;DHT22;35570;48.218;16.326;2023-08-06T03:03:31;16.40;99.90
49679;DHT22;35570;48.218;16.326;2023-08-06T03:05:57;16.40;99.90
49679;DHT22;35570;48.218;16.326;2023-08-06T03:08:23;16.40;99.90
49679;DHT22;35570;48.218;16.326;2023-08-06T03:10:50;16.40;99.90
49679;DHT22;35570;48.218;16.326;2023-08-06T03:13:17;16.40;99.90
49679;DHT22;35570;48.218;16.326;2023-08-06T03:15:54;16.40;99.90
49679;DHT22;35570;48.218;16.326;2023-08-06T03:18:20;16.40;99.90
49679;DHT22;35570;48.218;16.326;2023-08-06T03:20:46;16.40;99.90
49679;DHT22;35570;48.218;16.326;2023-08-06T03:23:12;16.50;99.90
49679;DHT22;35570;48.218;16.326;2023-08-06T03:25:39;16.50;99.90
49679;DHT22;35570;48.218;16.326;2023-08-06T03:28:11;16.50;99.90
49679;DHT22;35570;48.218;16.326;2023-08-06T03:30:36;16.50;99.90
49679;DHT22;35570;48.218;16.326;2023-08-06T03:33:02;16.60;99.90
49679;DHT22;35570;48.218;16.326;2023-08-06T03:35:29;16.60;99.90
49679;DHT22;35570;48.218;16.326;2023-08-06T03:37:54;16.60;99.90
49679;DHT22;35570;48.218;16.326;2023-08-06T03:40:21;16.60;99.90
49679;DHT22;35570;48.218;16.326;2023-08-06T03:42:47;16.60;99.90
49679;DHT22;35570;48.218;16.326;2023-08-06T03:45:13;16.60;99.90
49679;DHT22;35570;48.218;16.326;2023-08-06T03:47:38;16.70;99.90
49679;DHT22;35570;48.218;16.326;2023-08-06T03:50:04;16.70;99.90
49679;DHT22;35570;48.218;16.326;2023-08-06T03:52:30;16.80;99.90
49679;DHT22;35570;48.218;16.326;2023-08-06T03:54:57;16.80;99.90
49679;DHT22;35570;48.218;16.326;2023-08-06T03:57:23;16.80;99.90
49679;DHT22;35570;48.218;16.326;2023-08-06T03:59:48;16.80;99.90
49679;DHT22;35570;48.218;16.326;2023-08-06T04:02:14;16.80;99.90
49679;DHT22;35570;48.218;16.326;2023-08-06T04:04:39;16.70;99.90
49679;DHT22;35570;48.218;16.326;2023-08-06T04:07:05;16.80;99.90
49679;DHT22;35570;48.218;16.326;2023-08-06T04:09:32;16.80;99.90
49679;DHT22;35570;48.218;16.326;2023-08-06T04:11:57;16.80;99.90
49679;DHT22;35570;48.218;16.326;2023-08-06T04:14:26;16.80;99.90
49679;DHT22;35570;48.218;16.326;2023-08-06T04:16:51;16.80;99.90
49679;DHT22;35570;48.218;16.326;2023-08-06T04:19:19;16.80;99.90
49679;DHT22;35570;48.218;16.326;2023-08-06T04:21:44;16.80;99.90
49679;DHT22;35570;48.218;16.326;2023-08-06T04:24:10;16.80;99.90
49679;DHT22;35570;48.218;16.326;2023-08-06T04:26:36;16.80;99.90
49679;DHT22;35570;48.218;16.326;2023-08-06T04:29:01;16.80;99.90
49679;DHT22;35570;48.218;16.326;2023-08-06T04:31:29;16.80;99.90
49679;DHT22;35570;48.218;16.326;2023-08-06T04:33:54;16.80;99.90
49679;DHT22;35570;48.218;16.326;2023-08-06T04:36:20;16.80;99.90
49679;DHT22;35570;48.218;16.326;2023-08-06T04:38:45;16.80;99.90
49679;DHT22;35570;48.218;16.326;2023-08-06T04:41:12;16.80;99.90
49679;DHT22;35570;48.218;16.326;2023-08-06T04:43:38;16.90;99.90
49679;DHT22;35570;48.218;16.326;2023-08-06T04:46:05;16.80;99.90
49679;DHT22;35570;48.218;16.326;2023-08-06T04:48:31;16.80;99.90
49679;DHT22;35570;48.218;16.326;2023-08-06T04:50:57;16.90;99.90
49679;DHT22;35570;48.218;16.326;2023-08-06T04:53:23;16.90;99.90
49679;DHT22;35570;48.218;16.326;2023-08-06T04:55:49;16.90;99.90
49679;DHT22;35570;48.218;16.326;2023-08-06T04:58:14;16.80;99.90
49679;DHT22;35570;48.218;16.326;2023-08-06T05:00:40;16.80;99.90
49679;DHT22;35570;48.218;16.326;2023-08-06T05:03:08;16.80;99.90
49679;DHT22;35570;48.218;16.326;2023-08-06T05:05:35;16.80;99.90
49679;DHT22;35570;48.218;16.326;2023-08-06T05:08:00;16.70;99.90
49679;DHT22;35570;48.218;16.326;2023-08-06T05:10:26;16.70;99.90
49679;DHT22;35570;48.218;16.326;2023-08-06T05:12:53;16.70;99.90
49679;DHT22;35570;48.218;16.326;2023-08-06T05:15:20;16.70;99.90
49679;DHT22;35570;48.218;16.326;2023-08-06T05:17:48;16.70;99.90
49679;DHT22;35570;48.218;16.326;2023-08-06T05:20:13;16.70;99.90
49679;DHT22;35570;48.218;16.326;2023-08-06T05:22:40;16.60;99.90
49679;DHT22;35570;48.218;16.326;2023-08-06T05:25:07;16.70;99.90
49679;DHT22;35570;48.218;16.326;2023-08-06T05:27:33;16.70;99.90
49679;DHT22;35570;48.218;16.326;2023-08-06T05:30:00;16.70;99.90
49679;DHT22;35570;48.218;16.326;2023-08-06T05:32:26;16.70;99.90
49679;DHT22;35570;48.218;16.326;2023-08-06T05:34:52;16.70;99.90
49679;DHT22;35570;48.218;16.326;2023-08-06T05:37:18;16.70;99.90
49679;DHT22;35570;48.218;16.326;2023-08-06T05:39:44;16.70;99.90
49679;DHT22;35570;48.218;16.326;2023-08-06T05:42:10;16.70;99.90
49679;DHT22;35570;48.218;16.326;2023-08-06T05:44:35;16.70;99.90
49679;DHT22;35570;48.218;16.326;2023-08-06T05:47:01;16.70;99.90
49679;DHT22;35570;48.218;16.326;2023-08-06T05:49:27;16.70;99.90
49679;DHT22;35570;48.218;16.326;2023-08-06T05:51:53;16.80;99.90
49679;DHT22;35570;48.218;16.326;2023-08-06T05:54:20;16.70;99.90
49679;DHT22;35570;48.218;16.326;2023-08-06T05:56:46;16.70;99.90
49679;DHT22;35570;48.218;16.326;2023-08-06T05:59:12;16.80;99.90
49679;DHT22;35570;48.218;16.326;2023-08-06T06:01:38;16.80;99.90
49679;DHT22;35570;48.218;16.326;2023-08-06T06:04:04;16.80;99.90
49679;DHT22;35570;48.218;16.326;2023-08-06T06:06:29;16.80;99.90
49679;DHT22;35570;48.218;16.326;2023-08-06T06:08:56;16.80;99.90
49679;DHT22;35570;48.218;16.326;2023-08-06T06:11:22;16.90;99.90
49679;DHT22;35570;48.218;16.326;2023-08-06T06:13:51;16.90;99.90
49679;DHT22;35570;48.218;16.326;2023-08-06T06:16:17;16.90;99.90
49679;DHT22;35570;48.218;16.326;2023-08-06T06:18:49;17.00;99.90
49679;DHT22;35570;48.218;16.326;2023-08-06T06:21:14;17.00;99.90
49679;DHT22;35570;48.218;16.326;2023-08-06T06:23:44;17.00;99.90
49679;DHT22;35570;48.218;16.326;2023-08-06T06:26:10;17.00;99.90
49679;DHT22;35570;48.218;16.326;2023-08-06T06:28:38;17.00;99.90
49679;DHT22;35570;48.218;16.326;2023-08-06T06:31:03;17.00;99.90
49679;DHT22;35570;48.218;16.326;2023-08-06T06:33:30;17.00;99.90
49679;DHT22;35570;48.218;16.326;2023-08-06T06:35:56;17.00;99.90
49679;DHT22;35570;48.218;16.326;2023-08-06T06:38:21;17.00;99.90
49679;DHT22;35570;48.218;16.326;2023-08-06T06:40:57;17.00;99.90
49679;DHT22;35570;48.218;16.326;2023-08-06T06:43:24;17.10;99.90
49679;DHT22;35570;48.218;16.326;2023-08-06T06:45:57;17.10;99.90
49679;DHT22;35570;48.218;16.326;2023-08-06T06:48:24;17.20;99.90
49679;DHT22;35570;48.218;16.326;2023-08-06T06:50:50;17.20;99.90
49679;DHT22;35570;48.218;16.326;2023-08-06T06:53:16;17.30;99.90
49679;DHT22;35570;48.218;16.326;2023-08-06T06:55:41;17.30;99.90
49679;DHT22;35570;48.218;16.326;2023-08-06T06:58:09;17.40;99.90
49679;DHT22;35570;48.218;16.326;2023-08-06T07:00:38;17.40;99.90
49679;DHT22;35570;48.218;16.326;2023-08-06T07:03:04;17.40;99.90
49679;DHT22;35570;48.218;16.326;2023-08-06T07:05:30;17.40;99.90
49679;DHT22;35570;48.218;16.326;2023-08-06T07:07:57;17.50;99.90
49679;DHT22;35570;48.218;16.326;2023-08-06T07:10:23;17.40;99.90
49679;DHT22;35570;48.218;16.326;2023-08-06T07:12:49;17.50;99.90
49679;DHT22;35570;48.218;16.326;2023-08-06T07:15:16;17.50;99.90
49679;DHT22;35570;48.218;16.326;2023-08-06T07:17:43;17.50;99.90
49679;DHT22;35570;48.218;16.326;2023-08-06T07:20:10;17.50;99.90
49679;DHT22;35570;48.218;16.326;2023-08-06T07:22:35;17.50;99.90
49679;DHT22;35570;48.218;16.326;2023-08-06T07:25:01;17.50;99.90
49679;DHT22;35570;48.218;16.326;2023-08-06T07:27:27;17.50;99.90
49679;DHT22;35570;48.218;16.326;2023-08-06T07:29:55;17.50;99.90
49679;DHT22;35570;48.218;16.326;2023-08-06T07:32:20;17.60;99.90
49679;DHT22;35570;48.218;16.326;2023-08-06T07:34:46;17.60;99.90
49679;DHT22;35570;48.218;16.326;2023-08-06T07:37:12;17.60;99.90
49679;DHT22;35570;48.218;16.326;2023-08-06T07:39:37;17.60;99.90
49679;DHT22;35570;48.218;16.326;2023-08-06T07:42:06;17.60;99.90
49679;DHT22;35570;48.218;16.326;2023-08-06T07:44:32;17.70;99.90
49679;DHT22;35570;48.218;16.326;2023-08-06T07:46:58;17.70;99.90
49679;DHT22;35570;48.218;16.326;2023-08-06T07:49:24;17.80;99.90
49679;DHT22;35570;48.218;16.326;2023-08-06T07:51:50;17.70;99.90
49679;DHT22;35570;48.218;16.326;2023-08-06T07:54:17;17.80;99.90
49679;DHT22;35570;48.218;16.326;2023-08-06T07:56:42;17.80;99.90
49679;DHT22;35570;48.218;16.326;2023-08-06T07:59:08;17.80;99.90
49679;DHT22;35570;48.218;16.326;2023-08-06T08:01:34;17.80;99.90
49679;DHT22;35570;48.218;16.326;2023-08-06T08:04:01;17.80;99.90
49679;DHT22;35570;48.218;16.326;2023-08-06T08:06:27;17.80;99.90
49679;DHT22;35570;48.218;16.326;2023-08-06T08:08:52;17.70;99.90
49679;DHT22;35570;48.218;16.326;2023-08-06T08:11:18;17.70;99.90
49679;DHT22;35570;48.218;16.326;2023-08-06T08:13:44;17.60;99.90
49679;DHT22;35570;48.218;16.326;2023-08-06T08:16:10;17.60;99.90
49679;DHT22;35570;48.218;16.326;2023-08-06T08:18:37;17.60;99.90
49679;DHT22;35570;48.218;16.326;2023-08-06T08:21:03;17.50;99.90
49679;DHT22;35570;48.218;16.326;2023-08-06T08:23:28;17.50;99.90
49679;DHT22;35570;48.218;16.326;2023-08-06T08:25:57;17.50;99.90
49679;DHT22;35570;48.218;16.326;2023-08-06T08:28:23;17.50;99.90
49679;DHT22;35570;48.218;16.326;2023-08-06T08:30:48;17.50;99.90
49679;DHT22;35570;48.218;16.326;2023-08-06T08:33:16;17.40;99.90
49679;DHT22;35570;48.218;16.326;2023-08-06T08:35:42;17.50;99.90
49679;DHT22;35570;48.218;16.326;2023-08-06T08:38:07;17.50;99.90
49679;DHT22;35570;48.218;16.326;2023-08-06T08:40:35;17.50;99.90
49679;DHT22;35570;48.218;16.326;2023-08-06T08:43:05;17.60;99.90
49679;DHT22;35570;48.218;16.326;2023-08-06T08:45:34;17.60;99.90
49679;DHT22;35570;48.218;16.326;2023-08-06T08:48:00;17.70;99.90
49679;DHT22;35570;48.218;16.326;2023-08-06T08:50:26;17.70;99.90
49679;DHT22;35570;48.218;16.326;2023-08-06T08:52:52;17.90;99.90
49679;DHT22;35570;48.218;16.326;2023-08-06T08:55:18;18.00;99.90
49679;DHT22;35570;48.218;16.326;2023-08-06T08:57:45;18.10;99.90
49679;DHT22;35570;48.218;16.326;2023-08-06T09:00:12;18.20;99.90
49679;DHT22;35570;48.218;16.326;2023-08-06T09:02:40;18.20;99.90
49679;DHT22;35570;48.218;16.326;2023-08-06T09:05:07;18.20;99.90
49679;DHT22;35570;48.218;16.326;2023-08-06T09:07:42;18.10;99.90
49679;DHT22;35570;48.218;16.326;2023-08-06T09:10:11;18.00;99.90
49679;DHT22;35570;48.218;16.326;2023-08-06T09:12:39;17.90;99.90
49679;DHT22;35570;48.218;16.326;2023-08-06T09:15:05;17.80;99.90
49679;DHT22;35570;48.218;16.326;2023-08-06T09:17:33;17.70;99.90
49679;DHT22;35570;48.218;16.326;2023-08-06T09:19:58;17.70;99.90
49679;DHT22;35570;48.218;16.326;2023-08-06T09:22:24;17.60;99.90
49679;DHT22;35570;48.218;16.326;2023-08-06T09:24:51;17.60;99.90
49679;DHT22;35570;48.218;16.326;2023-08-06T09:27:16;17.60;99.90
49679;DHT22;35570;48.218;16.326;2023-08-06T09:29:44;17.60;99.90
49679;DHT22;35570;48.218;16.326;2023-08-06T09:32:12;17.50;99.90
49679;DHT22;35570;48.218;16.326;2023-08-06T09:34:42;17.50;99.90
49679;DHT22;35570;48.218;16.326;2023-08-06T09:37:11;17.40;99.90
49679;DHT22;35570;48.218;16.326;2023-08-06T09:39:38;17.40;99.90
49679;DHT22;35570;48.218;16.326;2023-08-06T09:42:04;17.40;99.90
49679;DHT22;35570;48.218;16.326;2023-08-06T09:44:31;17.50;99.90
49679;DHT22;35570;48.218;16.326;2023-08-06T09:47:03;17.50;99.90
49679;DHT22;35570;48.218;16.326;2023-08-06T09:49:41;17.50;99.90
49679;DHT22;35570;48.218;16.326;2023-08-06T09:52:11;17.50;99.90
49679;DHT22;35570;48.218;16.326;2023-08-06T09:54:37;17.60;99.90
49679;DHT22;35570;48.218;16.326;2023-08-06T09:57:04;17.60;99.90
49679;DHT22;35570;48.218;16.326;2023-08-06T09:59:32;17.70;99.90
49679;DHT22;35570;48.218;16.326;2023-08-06T10:01:58;17.70;99.90
49679;DHT22;35570;48.218;16.326;2023-08-06T10:04:31;17.80;99.90
49679;DHT22;35570;48.218;16.326;2023-08-06T10:06:58;17.90;99.90
49679;DHT22;35570;48.218;16.326;2023-08-06T10:09:24;17.90;99.90
49679;DHT22;35570;48.218;16.326;2023-08-06T10:11:51;18.00;99.90
49679;DHT22;35570;48.218;16.326;2023-08-06T10:14:23;18.10;99.90
49679;DHT22;35570;48.218;16.326;2023-08-06T10:16:50;18.10;99.90
49679;DHT22;35570;48.218;16.326;2023-08-06T10:19:17;18.10;99.90
49679;DHT22;35570;48.218;16.326;2023-08-06T10:22:12;18.20;99.90
49679;DHT22;35570;48.218;16.326;2023-08-06T10:24:55;18.20;99.90
49679;DHT22;35570;48.218;16.326;2023-08-06T10:27:39;18.20;99.90
49679;DHT22;35570;48.218;16.326;2023-08-06T10:30:21;18.30;99.90
49679;DHT22;35570;48.218;16.326;2023-08-06T10:32:47;18.40;99.90
49679;DHT22;35570;48.218;16.326;2023-08-06T10:35:42;18.40;99.90
49679;DHT22;35570;48.218;16.326;2023-08-06T10:38:20;18.50;99.90
49679;DHT22;35570;48.218;16.326;2023-08-06T10:41:01;18.40;99.90
49679;DHT22;35570;48.218;16.326;2023-08-06T10:43:36;18.40;99.90
49679;DHT22;35570;48.218;16.326;2023-08-06T10:46:21;18.40;99.90
49679;DHT22;35570;48.218;16.326;2023-08-06T10:48:46;18.50;99.90
49679;DHT22;35570;48.218;16.326;2023-08-06T10:51:14;18.50;99.90
49679;DHT22;35570;48.218;16.326;2023-08-06T10:53:46;18.50;99.90
49679;DHT22;35570;48.218;16.326;2023-08-06T10:56:16;18.50;99.90
49679;DHT22;35570;48.218;16.326;2023-08-06T10:58:43;18.50;99.90
49679;DHT22;35570;48.218;16.326;2023-08-06T11:01:10;18.40;99.90
49679;DHT22;35570;48.218;16.326;2023-08-06T11:03:36;18.40;99.90
49679;DHT22;35570;48.218;16.326;2023-08-06T11:06:02;18.40;99.90
49679;DHT22;35570;48.218;16.326;2023-08-06T11:08:33;18.30;99.90
49679;DHT22;35570;48.218;16.326;2023-08-06T11:11:13;18.30;99.90
49679;DHT22;35570;48.218;16.326;2023-08-06T11:13:45;18.30;99.90
49679;DHT22;35570;48.218;16.326;2023-08-06T11:16:15;18.30;99.90
49679;DHT22;35570;48.218;16.326;2023-08-06T11:18:42;18.20;99.90
49679;DHT22;35570;48.218;16.326;2023-08-06T11:21:09;18.20;99.90
49679;DHT22;35570;48.218;16.326;2023-08-06T11:23:40;18.00;99.90
49679;DHT22;35570;48.218;16.326;2023-08-06T11:26:06;17.80;99.90
49679;DHT22;35570;48.218;16.326;2023-08-06T11:28:32;17.70;99.90
49679;DHT22;35570;48.218;16.326;2023-08-06T11:30:58;17.70;99.90
49679;DHT22;35570;48.218;16.326;2023-08-06T11:33:27;17.70;99.90
49679;DHT22;35570;48.218;16.326;2023-08-06T11:35:58;17.70;99.90
49679;DHT22;35570;48.218;16.326;2023-08-06T11:38:28;17.70;99.90
49679;DHT22;35570;48.218;16.326;2023-08-06T11:40:55;17.80;99.90
49679;DHT22;35570;48.218;16.326;2023-08-06T11:43:21;17.80;99.90
49679;DHT22;35570;48.218;16.326;2023-08-06T11:45:51;17.80;99.90
49679;DHT22;35570;48.218;16.326;2023-08-06T11:48:19;17.70;99.90
49679;DHT22;35570;48.218;16.326;2023-08-06T11:50:47;17.70;99.90
49679;DHT22;35570;48.218;16.326;2023-08-06T11:53:13;17.60;99.90
49679;DHT22;35570;48.218;16.326;2023-08-06T11:55:41;17.50;99.90
49679;DHT22;35570;48.218;16.326;2023-08-06T11:58:09;17.40;99.90
49679;DHT22;35570;48.218;16.326;2023-08-06T12:00:39;17.30;99.90
49679;DHT22;35570;48.218;16.326;2023-08-06T12:03:05;17.30;99.90
49679;DHT22;35570;48.218;16.326;2023-08-06T12:05:31;17.20;99.90
49679;DHT22;35570;48.218;16.326;2023-08-06T12:08:04;17.20;99.90
49679;DHT22;35570;48.218;16.326;2023-08-06T12:10:31;17.20;99.90
49679;DHT22;35570;48.218;16.326;2023-08-06T12:12:57;17.30;99.90
49679;DHT22;35570;48.218;16.326;2023-08-06T12:15:24;17.30;99.90
49679;DHT22;35570;48.218;16.326;2023-08-06T12:17:49;17.30;99.90
49679;DHT22;35570;48.218;16.326;2023-08-06T12:20:15;17.30;99.90
49679;DHT22;35570;48.218;16.326;2023-08-06T12:22:43;17.40;99.90
49679;DHT22;35570;48.218;16.326;2023-08-06T12:25:11;17.40;99.90
49679;DHT22;35570;48.218;16.326;2023-08-06T12:27:44;17.40;99.90
49679;DHT22;35570;48.218;16.326;2023-08-06T12:30:12;17.50;99.90
49679;DHT22;35570;48.218;16.326;2023-08-06T12:32:38;17.50;99.90
49679;DHT22;35570;48.218;16.326;2023-08-06T12:35:05;17.50;99.90
49679;DHT22;35570;48.218;16.326;2023-08-06T12:37:32;17.50;99.90
49679;DHT22;35570;48.218;16.326;2023-08-06T12:39:58;17.50;99.90
49679;DHT22;35570;48.218;16.326;2023-08-06T12:42:24;17.50;99.90
49679;DHT22;35570;48.218;16.326;2023-08-06T12:44:51;17.60;99.90
49679;DHT22;35570;48.218;16.326;2023-08-06T12:47:17;17.60;99.90
49679;DHT22;35570;48.218;16.326;2023-08-06T12:49:43;17.60;99.90
49679;DHT22;35570;48.218;16.326;2023-08-06T12:52:09;17.70;99.90
49679;DHT22;35570;48.218;16.326;2023-08-06T12:54:35;17.70;99.90
49679;DHT22;35570;48.218;16.326;2023-08-06T12:57:05;17.70;99.90
49679;DHT22;35570;48.218;16.326;2023-08-06T12:59:31;17.80;99.90
49679;DHT22;35570;48.218;16.326;2023-08-06T13:01:59;17.90;99.90
49679;DHT22;35570;48.218;16.326;2023-08-06T13:04:27;17.90;99.90
49679;DHT22;35570;48.218;16.326;2023-08-06T13:06:54;17.90;99.90
49679;DHT22;35570;48.218;16.326;2023-08-06T13:09:20;17.90;99.90
49679;DHT22;35570;48.218;16.326;2023-08-06T13:11:47;18.00;99.90
49679;DHT22;35570;48.218;16.326;2023-08-06T13:14:16;18.00;99.90
49679;DHT22;35570;48.218;16.326;2023-08-06T13:16:43;18.10;99.90
49679;DHT22;35570;48.218;16.326;2023-08-06T13:19:10;18.10;99.90
49679;DHT22;35570;48.218;16.326;2023-08-06T13:24:09;18.30;99.90
49679;DHT22;35570;48.218;16.326;2023-08-06T13:26:35;18.30;99.90
49679;DHT22;35570;48.218;16.326;2023-08-06T13:29:02;18.40;99.90
49679;DHT22;35570;48.218;16.326;2023-08-06T13:33:55;17.80;99.90
49679;DHT22;35570;48.218;16.326;2023-08-06T13:36:26;18.70;99.90
49679;DHT22;35570;48.218;16.326;2023-08-06T13:38:53;18.80;99.90
49679;DHT22;35570;48.218;16.326;2023-08-06T13:41:20;18.80;99.90
49679;DHT22;35570;48.218;16.326;2023-08-06T13:43:47;18.90;99.90
49679;DHT22;35570;48.218;16.326;2023-08-06T13:46:13;18.90;99.90
49679;DHT22;35570;48.218;16.326;2023-08-06T13:48:44;19.00;99.90
49679;DHT22;35570;48.218;16.326;2023-08-06T13:51:12;19.20;99.90
49679;DHT22;35570;48.218;16.326;2023-08-06T13:53:39;19.20;99.90
49679;DHT22;35570;48.218;16.326;2023-08-06T13:58:35;19.30;99.90
49679;DHT22;35570;48.218;16.326;2023-08-06T14:01:02;19.40;99.90
49679;DHT22;35570;48.218;16.326;2023-08-06T14:03:28;19.30;99.90
49679;DHT22;35570;48.218;16.326;2023-08-06T14:05:54;19.30;99.90
49679;DHT22;35570;48.218;16.326;2023-08-06T14:08:24;19.30;99.90
49679;DHT22;35570;48.218;16.326;2023-08-06T14:10:51;19.30;99.90
49679;DHT22;35570;48.218;16.326;2023-08-06T14:13:17;19.30;99.90
49679;DHT22;35570;48.218;16.326;2023-08-06T14:15:44;19.40;99.90
49679;DHT22;35570;48.218;16.326;2023-08-06T14:18:13;19.40;99.90
49679;DHT22;35570;48.218;16.326;2023-08-06T14:20:40;19.50;99.90
49679;DHT22;35570;48.218;16.326;2023-08-06T14:23:07;19.50;99.90
49679;DHT22;35570;48.218;16.326;2023-08-06T14:25:33;19.50;99.90
49679;DHT22;35570;48.218;16.326;2023-08-06T14:28:00;19.60;99.90
49679;DHT22;35570;48.218;16.326;2023-08-06T14:30:26;19.60;99.90
49679;DHT22;35570;48.218;16.326;2023-08-06T14:32:53;19.60;99.10
49679;DHT22;35570;48.218;16.326;2023-08-06T14:35:19;19.50;99.60
49679;DHT22;35570;48.218;16.326;2023-08-06T14:37:45;19.40;99.90
49679;DHT22;35570;48.218;16.326;2023-08-06T14:40:14;19.30;99.80
49679;DHT22;35570;48.218;16.326;2023-08-06T14:42:40;19.20;99.90
49679;DHT22;35570;48.218;16.326;2023-08-06T14:45:07;19.00;99.90
49679;DHT22;35570;48.218;16.326;2023-08-06T14:47:34;18.80;99.90
49679;DHT22;35570;48.218;16.326;2023-08-06T14:50:01;18.70;99.90
49679;DHT22;35570;48.218;16.326;2023-08-06T14:52:28;18.50;99.90
49679;DHT22;35570;48.218;16.326;2023-08-06T14:54:55;18.50;99.90
49679;DHT22;35570;48.218;16.326;2023-08-06T14:57:21;18.40;99.90
49679;DHT22;35570;48.218;16.326;2023-08-06T14:59:58;18.30;99.90
49679;DHT22;35570;48.218;16.326;2023-08-06T15:02:26;18.30;99.90
49679;DHT22;35570;48.218;16.326;2023-08-06T15:04:53;18.50;99.90
49679;DHT22;35570;48.218;16.326;2023-08-06T15:07:20;18.50;99.90
49679;DHT22;35570;48.218;16.326;2023-08-06T15:09:48;18.50;99.90
49679;DHT22;35570;48.218;16.326;2023-08-06T15:12:15;18.40;99.90
49679;DHT22;35570;48.218;16.326;2023-08-06T15:14:43;18.40;99.90
49679;DHT22;35570;48.218;16.326;2023-08-06T15:17:09;18.40;99.90
49679;DHT22;35570;48.218;16.326;2023-08-06T15:19:36;18.30;99.90
49679;DHT22;35570;48.218;16.326;2023-08-06T15:22:03;18.30;99.90
49679;DHT22;35570;48.218;16.326;2023-08-06T15:24:30;18.30;99.90
49679;DHT22;35570;48.218;16.326;2023-08-06T15:26:57;18.30;99.90